Time;durP1;ratioP1;P1;durP2;ratioP2;P2;SDS_P1;SDS_P2;PMS_P1;PMS_P2;Temp;Humidity;BMP_temperature;BMP_pressure;BME280_temperature;BME280_humidity;BME280_pressure;Samples;Min_cycle;Max_cycle;Signal;HPM_P1;HPM_P2
2023/01/28 00:02:19;;;;;;;33.88;20.48;;;;;;;2.98;95.45;100408.75;5113366;28;20076;-68
2023/01/28 00:04:44;;;;;;;39.33;21.13;;;;;;;2.86;95.63;100393.53;5112724;28;20032;-68
2023/01/28 00:07:10;;;;;;;42.35;22.40;;;;;;;2.88;96.19;100416.38;5112933;28;20035;-67
2023/01/28 00:09:35;;;;;;;38.30;20.48;;;;;;;2.87;97.12;100411.16;5112700;28;20024;-69
2023/01/28 00:12:01;;;;;;;40.42;21.75;;;;;;;2.87;97.26;100417.28;5113095;28;20098;-68
2023/01/28 00:14:26;;;;;;;36.25;20.02;;;;;;;2.85;97.56;100405.94;5113005;28;20026;-68
2023/01/28 00:16:52;;;;;;;37.60;21.67;;;;;;;2.87;98.04;100405.84;5112801;28;20036;-68
2023/01/28 00:19:17;;;;;;;38.70;21.10;;;;;;;2.91;97.14;100408.25;5112897;28;20068;-68
2023/01/28 00:21:43;;;;;;;39.33;21.52;;;;;;;2.89;96.26;100404.81;5112468;28;20042;-68
2023/01/28 00:24:08;;;;;;;38.05;21.15;;;;;;;2.87;96.09;100411.16;5112793;28;20106;-68
2023/01/28 00:26:34;;;;;;;37.65;22.40;;;;;;;2.90;96.45;100418.94;5112502;28;20063;-68
2023/01/28 00:29:00;;;;;;;37.40;21.45;;;;;;;2.90;96.92;100421.59;5112661;28;20545;-68
2023/01/28 00:31:26;;;;;;;39.88;22.38;;;;;;;2.89;97.03;100417.19;5111031;28;20036;-67
2023/01/28 00:33:53;;;;;;;39.63;21.60;;;;;;;2.93;96.93;100427.56;5112833;28;20027;-67
2023/01/28 00:36:21;;;;;;;37.78;20.45;;;;;;;2.93;97.17;100424.91;5112024;28;20632;-67
2023/01/28 00:38:55;;;;;;;42.30;22.10;;;;;;;2.96;96.94;100431.84;5112552;28;20023;-67
2023/01/28 00:41:23;;;;;;;38.13;21.60;;;;;;;2.98;96.75;100427.31;5112345;28;20063;-68
2023/01/28 00:43:50;;;;;;;44.15;21.95;;;;;;;2.90;97.17;100419.78;5112599;28;20020;-67
2023/01/28 00:46:16;;;;;;;39.55;21.80;;;;;;;2.96;96.91;100430.03;5111910;28;20036;-68
2023/01/28 00:48:43;;;;;;;38.17;21.27;;;;;;;2.96;96.97;100430.03;5112483;28;20036;-68
2023/01/28 00:51:09;;;;;;;40.80;21.40;;;;;;;2.92;97.13;100428.50;5111790;27;20442;-68
2023/01/28 00:57:10;;;;;;;38.92;20.80;;;;;;;2.94;97.60;100437.22;5111454;28;20058;-68
2023/01/28 01:03:37;;;;;;;38.95;21.33;;;;;;;2.91;97.54;100433.88;5106614;28;20054;-69
2023/01/28 01:06:04;;;;;;;40.38;22.95;;;;;;;2.91;97.79;100437.41;5111082;28;20205;-69
2023/01/28 01:08:33;;;;;;;43.80;22.70;;;;;;;2.85;98.03;100432.44;5112027;27;20032;-69
2023/01/28 01:11:03;;;;;;;43.47;22.75;;;;;;;2.88;98.14;100429.63;5112537;28;20392;-68
2023/01/28 01:16:50;;;;;;;40.28;21.90;;;;;;;2.93;98.61;100446.09;5112423;28;20124;-69
2023/01/28 01:19:15;;;;;;;46.10;23.98;;;;;;;2.96;98.38;100447.75;5112085;28;20567;-70
2023/01/28 01:21:41;;;;;;;43.55;23.65;;;;;;;2.99;97.99;100445.75;5111817;28;20023;-67
2023/01/28 01:24:07;;;;;;;46.80;24.40;;;;;;;2.92;97.79;100430.28;5111679;28;20043;-69
2023/01/28 01:26:37;;;;;;;48.92;24.58;;;;;;;2.83;97.79;100422.88;5112372;28;20042;-69
2023/01/28 01:29:03;;;;;;;48.30;23.70;;;;;;;2.94;97.46;100434.56;5112138;27;20447;-68
2023/01/28 01:31:28;;;;;;;43.08;23.35;;;;;;;3.08;96.72;100436.44;5110700;28;20024;-70
2023/01/28 01:33:53;;;;;;;41.08;23.48;;;;;;;2.90;96.56;100418.94;5112223;28;20067;-68
2023/01/28 01:36:20;;;;;;;42.30;23.67;;;;;;;2.93;97.04;100426.72;5112373;28;20073;-69
2023/01/28 01:38:47;;;;;;;45.45;23.00;;;;;;;2.97;96.51;100441.50;5112538;28;20035;-69
2023/01/28 01:41:25;;;;;;;39.67;22.55;;;;;;;2.96;96.43;100434.50;5112731;28;20039;-69
2023/01/28 01:43:55;;;;;;;41.17;23.00;;;;;;;2.90;96.89;100448.06;5111819;28;20082;-69
2023/01/28 01:46:50;;;;;;;42.85;23.27;;;;;;;2.89;97.45;100443.69;5112172;28;20061;-68
2023/01/28 01:49:27;;;;;;;44.30;23.70;;;;;;;2.89;96.70;100452.50;5110977;28;20085;-68
2023/01/28 01:52:02;;;;;;;46.80;24.33;;;;;;;2.85;97.40;100444.81;5111831;28;20106;-68
2023/01/28 01:54:31;;;;;;;44.55;23.90;;;;;;;2.79;97.30;100438.06;5111479;28;20411;-68
2023/01/28 01:56:58;;;;;;;45.85;24.13;;;;;;;2.73;97.77;100434.88;5111572;28;20027;-68
2023/01/28 01:59:28;;;;;;;47.22;23.88;;;;;;;2.83;98.05;100450.19;5111234;28;20035;-68
2023/01/28 02:01:55;;;;;;;45.40;24.13;;;;;;;2.86;97.36;100457.09;5111291;28;20031;-68
2023/01/28 02:04:43;;;;;;;46.50;23.50;;;;;;;2.85;97.28;100452.75;5110961;28;20497;-67
2023/01/28 02:07:11;;;;;;;47.40;24.65;;;;;;;2.79;97.30;100453.06;5111109;28;20080;-69
2023/01/28 02:09:37;;;;;;;42.25;24.15;;;;;;;2.82;96.53;100444.97;5113917;27;20031;-69
2023/01/28 02:12:17;;;;;;;43.25;24.92;;;;;;;2.81;96.97;100456.50;5113834;28;20115;-69
2023/01/28 02:15:11;;;;;;;48.58;24.10;;;;;;;2.85;96.53;100461.56;5115005;27;20051;-70
2023/01/28 02:17:37;;;;;;;43.83;23.38;;;;;;;2.75;97.11;100447.09;5105541;28;20130;-69
2023/01/28 02:20:14;;;;;;;48.05;25.02;;;;;;;2.73;97.37;100451.63;5113503;28;20036;-69
2023/01/28 02:23:10;;;;;;;43.50;24.02;;;;;;;2.79;97.70;100461.88;5114123;28;20044;-68
2023/01/28 02:26:12;;;;;;;46.78;24.15;;;;;;;2.80;97.51;100458.28;5114627;28;20074;-67
2023/01/28 02:28:58;;;;;;;42.78;23.65;;;;;;;2.81;97.36;100457.38;5115241;28;20495;-69
2023/01/28 02:31:27;;;;;;;45.72;23.48;;;;;;;2.79;97.12;100455.72;5115308;28;20020;-68
2023/01/28 02:34:18;;;;;;;41.15;23.23;;;;;;;2.73;96.61;100440.16;5114964;28;20115;-69
2023/01/28 02:37:02;;;;;;;48.08;26.55;;;;;;;2.92;96.35;100459.41;5114512;28;20047;-68
2023/01/28 02:39:31;;;;;;;50.53;24.13;;;;;;;2.82;96.88;100452.91;5114752;28;20050;-68
2023/01/28 02:42:04;;;;;;;47.42;24.33;;;;;;;2.89;95.63;100438.41;5114842;28;20474;-69
2023/01/28 02:44:29;;;;;;;47.40;25.30;;;;;;;2.81;96.26;100438.84;5114658;27;20063;-68
2023/01/28 02:49:43;;;;;;;45.05;23.77;;;;;;;2.78;97.46;100432.84;5113682;28;20124;-69
2023/01/28 02:55:36;;;;;;;42.72;23.88;;;;;;;2.77;98.18;100433.78;5113691;28;20086;-69
2023/01/28 02:58:05;;;;;;;41.17;22.65;;;;;;;2.72;98.46;100434.03;5114429;28;20071;-69
2023/01/28 03:04:01;;;;;;;46.17;24.35;;;;;;;2.80;97.30;100441.56;5104749;28;20554;-68
2023/01/28 03:06:39;;;;;;;47.58;23.70;;;;;;;2.69;98.03;100428.03;5113289;28;20491;-69
2023/01/28 03:09:27;;;;;;;45.42;24.25;;;;;;;2.68;98.24;100429.84;5113913;28;20023;-71
2023/01/28 03:38:40;;;;;;;45.70;25.50;;;;;;;2.65;99.80;100467.06;5112534;28;20141;-70
2023/01/28 03:41:08;;;;;;;47.67;25.88;;;;;;;2.66;98.64;100452.03;5112043;28;20391;-69
2023/01/28 03:43:34;;;;;;;49.55;25.38;;;;;;;2.70;99.17;100465.03;5112722;28;20499;-70
2023/01/28 03:46:00;;;;;;;41.45;23.83;;;;;;;2.60;99.71;100462.94;5112504;28;20390;-68
2023/01/28 03:48:27;;;;;;;49.80;26.40;;;;;;;2.55;99.55;100455.25;5112654;27;20483;-69
2023/01/28 03:50:59;;;;;;;48.97;25.70;;;;;;;2.54;99.96;100452.69;5112998;28;20464;-68
2023/01/28 03:53:25;;;;;;;45.55;25.02;;;;;;;2.55;100.00;100457.91;5111315;28;20035;-70
2023/01/28 03:55:52;;;;;;;49.95;27.13;;;;;;;2.74;98.23;100466.56;5113036;28;20055;-68
2023/01/28 03:58:19;;;;;;;49.90;26.33;;;;;;;2.65;99.39;100458.28;5112724;28;20043;-70
2023/01/28 04:00:46;;;;;;;49.47;26.85;;;;;;;2.64;98.65;100456.56;5111983;28;20020;-69
2023/01/28 04:03:17;;;;;;;52.85;26.10;;;;;;;2.53;99.10;100443.88;5113246;28;20048;-70
2023/01/28 04:09:04;;;;;;;50.63;27.13;;;;;;;2.66;97.37;100458.19;5113859;28;20375;-69
2023/01/28 04:11:30;;;;;;;51.63;27.50;;;;;;;2.64;97.82;100462.69;5113433;28;20027;-70
2023/01/28 04:13:55;;;;;;;48.22;26.67;;;;;;;2.54;98.74;100450.06;5113235;28;20088;-69
2023/01/28 04:16:21;;;;;;;51.28;25.70;;;;;;;2.60;99.46;100471.75;5112005;28;20027;-70
2023/01/28 04:18:46;;;;;;;49.63;26.50;;;;;;;2.53;99.71;100456.25;5113196;28;20022;-71
2023/01/28 04:21:12;;;;;;;49.30;28.13;;;;;;;2.60;98.52;100465.59;5113306;28;20076;-69
2023/01/28 04:23:37;;;;;;;49.53;26.77;;;;;;;2.50;98.99;100459.06;5112961;28;20050;-70
2023/01/28 04:26:03;;;;;;;44.80;25.30;;;;;;;2.56;99.72;100459.63;5113063;28;20080;-70
2023/01/28 04:28:29;;;;;;;49.90;26.60;;;;;;;2.64;99.62;100469.81;5112451;28;20039;-70
2023/01/28 04:30:54;;;;;;;48.97;26.15;;;;;;;2.49;99.80;100457.38;5113365;28;20023;-70
2023/01/28 04:33:20;;;;;;;48.78;26.30;;;;;;;2.56;99.28;100477.28;5112410;28;20358;-70
2023/01/28 04:35:46;;;;;;;48.90;26.50;;;;;;;2.54;99.82;100476.53;5113407;28;20024;-70
2023/01/28 04:38:11;;;;;;;50.28;26.02;;;;;;;2.55;99.96;100478.22;5113542;28;20534;-70
2023/01/28 04:40:36;;;;;;;47.10;24.70;;;;;;;2.57;100.00;100487.78;5112974;28;20034;-70
2023/01/28 04:43:02;;;;;;;45.42;24.25;;;;;;;2.56;100.00;100482.56;5113099;28;20032;-70
2023/01/28 04:45:28;;;;;;;45.75;25.23;;;;;;;2.56;98.95;100475.50;5112661;28;20016;-70
2023/01/28 04:47:54;;;;;;;45.72;25.67;;;;;;;2.59;98.81;100490.34;5113139;28;20077;-70
2023/01/28 04:50:19;;;;;;;47.25;25.02;;;;;;;2.61;99.08;100493.78;5111571;28;20027;-70
2023/01/28 04:52:44;;;;;;;47.63;24.80;;;;;;;2.58;98.80;100499.25;5112666;28;20024;-71
2023/01/28 04:55:10;;;;;;;46.92;24.35;;;;;;;2.67;98.04;100496.94;5112579;28;20108;-70
2023/01/28 04:57:36;;;;;;;50.45;24.80;;;;;;;2.53;98.33;100488.03;5112546;28;20035;-71
2023/01/28 05:00:02;;;;;;;44.75;24.83;;;;;;;2.56;98.61;100495.81;5112516;28;20024;-71
2023/01/28 05:02:28;;;;;;;51.53;24.73;;;;;;;2.67;98.99;100518.13;5112000;28;20046;-70
2023/01/28 05:04:53;;;;;;;44.70;23.27;;;;;;;2.63;98.54;100513.94;5112243;28;20040;-71
2023/01/28 05:07:19;;;;;;;47.45;24.85;;;;;;;2.76;96.79;100501.75;5112771;28;20079;-68
2023/01/28 05:09:44;;;;;;;44.30;23.48;;;;;;;2.72;96.76;100508.16;5112272;28;20023;-67
2023/01/28 05:12:10;;;;;;;44.28;23.50;;;;;;;2.72;95.98;100496.72;5112872;28;20015;-68
2023/01/28 05:14:35;;;;;;;46.42;24.50;;;;;;;2.64;96.24;100506.88;5112556;28;20019;-68
2023/01/28 05:17:00;;;;;;;45.53;24.05;;;;;;;2.64;97.11;100515.66;5112422;28;20069;-69
2023/01/28 05:19:26;;;;;;;47.63;23.98;;;;;;;2.63;97.29;100515.72;5111736;28;20548;-70
2023/01/28 05:21:51;;;;;;;45.97;24.23;;;;;;;2.61;97.14;100510.50;5112323;28;20430;-70
2023/01/28 05:24:17;;;;;;;44.50;24.30;;;;;;;2.63;97.19;100518.38;5110966;28;20036;-70
2023/01/28 05:26:42;;;;;;;45.75;24.25;;;;;;;2.62;96.91;100528.13;5112090;28;20118;-70
2023/01/28 05:29:08;;;;;;;41.75;23.75;;;;;;;2.63;97.52;100524.53;5111104;28;20028;-71
2023/01/28 05:31:34;;;;;;;47.55;25.30;;;;;;;2.63;97.26;100518.38;5111999;28;20080;-71
2023/01/28 05:33:59;;;;;;;51.50;26.27;;;;;;;2.70;96.43;100517.16;5112162;28;20016;-72
2023/01/28 05:36:25;;;;;;;49.03;25.25;;;;;;;2.66;95.93;100516.44;5112084;28;20369;-70
2023/01/28 05:38:50;;;;;;;43.53;24.55;;;;;;;2.67;95.93;100520.78;5111840;28;20022;-70
2023/01/28 05:41:16;;;;;;;49.22;25.23;;;;;;;2.67;95.73;100522.59;5112270;28;20106;-70
2023/01/28 05:43:41;;;;;;;48.97;26.73;;;;;;;2.62;96.00;100524.63;5111345;28;20028;-70
2023/01/28 05:46:07;;;;;;;49.67;25.88;;;;;;;2.67;94.99;100520.78;5112319;28;20015;-68
2023/01/28 05:48:32;;;;;;;45.10;25.30;;;;;;;2.66;94.86;100528.81;5112454;28;20111;-70
2023/01/28 05:50:58;;;;;;;49.50;25.05;;;;;;;2.74;94.99;100540.69;5112591;28;20120;-69
2023/01/28 05:53:24;;;;;;;50.42;26.13;;;;;;;2.71;95.44;100538.22;5112902;28;20508;-68
2023/01/28 05:55:52;;;;;;;47.45;25.55;;;;;;;2.73;95.40;100540.78;5112352;28;20038;-68
2023/01/28 05:58:18;;;;;;;46.72;25.27;;;;;;;2.79;94.70;100540.47;5112260;28;20100;-68
2023/01/28 06:00:43;;;;;;;47.25;24.98;;;;;;;2.73;94.82;100549.59;5111846;28;20088;-69
2023/01/28 06:03:09;;;;;;;50.10;26.33;;;;;;;2.75;94.81;100549.50;5111761;28;20055;-69
2023/01/28 06:05:34;;;;;;;47.25;25.52;;;;;;;2.73;94.63;100554.88;5111761;28;20063;-67
2023/01/28 06:08:00;;;;;;;50.90;25.63;;;;;;;2.72;94.31;100554.97;5112005;28;20024;-68
2023/01/28 06:10:25;;;;;;;46.28;25.60;;;;;;;2.64;94.20;100541.28;5110673;28;20110;-68
2023/01/28 06:12:51;;;;;;;46.35;24.92;;;;;;;2.71;93.55;100555.91;5111890;28;20053;-68
2023/01/28 06:15:16;;;;;;;45.67;25.08;;;;;;;2.61;94.40;100552.03;5111807;28;20012;-69
2023/01/28 06:17:42;;;;;;;47.42;25.25;;;;;;;2.54;95.46;100540.06;5111677;28;20023;-68
2023/01/28 06:20:08;;;;;;;47.05;24.38;;;;;;;2.65;94.52;100561.53;5110426;28;20043;-68
2023/01/28 06:22:34;;;;;;;52.15;26.25;;;;;;;2.71;94.33;100562.03;5111543;28;20084;-68
2023/01/28 06:24:59;;;;;;;46.85;25.35;;;;;;;2.63;95.11;100552.78;5111726;28;20040;-69
2023/01/28 06:27:26;;;;;;;51.10;25.75;;;;;;;2.62;95.73;100564.31;5111832;28;20038;-69
2023/01/28 06:29:51;;;;;;;44.70;24.08;;;;;;;2.63;96.38;100560.72;5111751;28;20388;-69
2023/01/28 06:32:17;;;;;;;47.88;25.63;;;;;;;2.62;96.07;100554.59;5111764;28;20019;-69
2023/01/28 06:34:42;;;;;;;52.50;26.83;;;;;;;2.69;95.79;100578.94;5111558;28;20016;-69
2023/01/28 06:37:08;;;;;;;52.85;25.73;;;;;;;2.67;95.77;100578.19;5111628;28;20020;-69
2023/01/28 06:39:33;;;;;;;45.15;23.35;;;;;;;2.66;95.08;100560.56;5111384;28;20102;-69
2023/01/28 06:41:59;;;;;;;46.25;24.67;;;;;;;2.70;94.78;100573.56;5111641;28;20027;-69
2023/01/28 06:44:25;;;;;;;45.13;25.13;;;;;;;2.65;94.48;100564.16;5110254;28;20060;-68
2023/01/28 06:46:50;;;;;;;45.85;24.80;;;;;;;2.67;94.40;100572.91;5111591;28;20377;-69
2023/01/28 06:49:16;;;;;;;46.20;24.50;;;;;;;2.81;92.74;100579.19;5111648;28;20038;-69
2023/01/28 06:51:41;;;;;;;45.97;23.05;;;;;;;2.70;93.47;100578.88;5111462;28;20106;-69
2023/01/28 06:54:07;;;;;;;48.17;24.02;;;;;;;2.78;92.71;100591.72;5111689;28;20027;-69
2023/01/28 06:56:32;;;;;;;45.95;25.95;;;;;;;2.68;93.11;100570.19;5112550;28;20096;-68
2023/01/28 06:58:58;;;;;;;47.85;25.85;;;;;;;2.73;93.50;100578.72;5114593;28;20024;-67
2023/01/28 07:01:23;;;;;;;52.58;26.23;;;;;;;2.82;92.35;100580.03;5114561;28;20028;-68
2023/01/28 07:03:49;;;;;;;44.80;24.67;;;;;;;2.87;91.78;100583.31;5114101;28;20051;-68
2023/01/28 07:06:14;;;;;;;46.97;24.65;;;;;;;2.81;92.11;100583.63;5113144;28;20122;-68
2023/01/28 07:08:40;;;;;;;43.30;22.67;;;;;;;2.75;93.05;100592.75;5114248;28;20422;-68
2023/01/28 07:11:06;;;;;;;45.85;24.52;;;;;;;2.73;93.33;100591.09;5114269;28;20030;-67
2023/01/28 07:13:31;;;;;;;44.10;24.23;;;;;;;2.65;93.88;100583.56;5114269;28;20096;-68
2023/01/28 07:15:57;;;;;;;46.38;24.52;;;;;;;2.72;93.47;100581.44;5114163;28;20102;-69
2023/01/28 07:21:44;;;;;;;49.50;24.48;;;;;;;2.69;93.40;100582.47;5114244;28;20123;-68
2023/01/28 07:24:10;;;;;;;46.85;24.38;;;;;;;2.83;93.22;100601.13;5114098;28;20099;-69
2023/01/28 07:26:35;;;;;;;45.80;23.70;;;;;;;2.81;93.37;100602.16;5113826;28;20088;-69
2023/01/28 07:29:01;;;;;;;45.63;25.15;;;;;;;2.89;92.60;100606.13;5114159;28;20020;-69
2023/01/28 07:31:26;;;;;;;47.67;25.85;;;;;;;2.87;92.93;100605.34;5114086;28;20016;-69
2023/01/28 07:33:51;;;;;;;53.17;26.60;;;;;;;3.09;91.76;100615.69;5113957;27;20076;-69
2023/01/28 07:36:17;;;;;;;51.15;28.52;;;;;;;3.11;90.96;100622.63;5114052;28;20023;-68
2023/01/28 07:38:42;;;;;;;54.78;27.98;;;;;;;3.09;90.71;100613.03;5114105;28;20052;-69
2023/01/28 07:41:08;;;;;;;48.70;28.02;;;;;;;3.09;90.89;100623.63;5114016;27;20110;-68
2023/01/28 07:43:34;;;;;;;57.13;30.38;;;;;;;2.98;92.01;100626.84;5113908;28;20033;-69
2023/01/28 07:46:03;;;;;;;55.17;30.75;;;;;;;3.05;92.04;100622.06;5113955;28;20012;-69
2023/01/28 07:48:28;;;;;;;58.63;31.23;;;;;;;2.97;92.54;100618.97;5112482;28;20483;-68
2023/01/28 07:50:58;;;;;;;75.28;39.05;;;;;;;3.15;91.26;100618.84;5113394;28;20028;-69
2023/01/28 07:53:23;;;;;;;57.95;32.90;;;;;;;3.07;91.11;100610.47;5113586;28;20019;-69
2023/01/28 07:55:49;;;;;;;55.83;29.77;;;;;;;3.13;91.18;100627.84;5113450;28;20034;-70
2023/01/28 07:58:14;;;;;;;55.00;28.10;;;;;;;2.97;92.00;100618.97;5112252;28;20042;-70
2023/01/28 08:00:40;;;;;;;52.40;25.75;;;;;;;3.01;92.76;100631.13;5112213;28;20019;-69
2023/01/28 08:03:13;;;;;;;46.53;25.85;;;;;;;3.04;92.74;100628.31;5113446;28;20023;-69
2023/01/28 08:05:42;;;;;;;49.47;26.73;;;;;;;3.09;91.16;100628.94;5113666;28;20056;-69
2023/01/28 08:08:09;;;;;;;49.45;25.27;;;;;;;3.14;91.82;100640.13;5114622;28;20480;-69
2023/01/28 08:10:35;;;;;;;46.78;25.60;;;;;;;3.14;90.15;100626.88;5114259;28;20529;-70
2023/01/28 08:13:00;;;;;;;46.67;25.10;;;;;;;3.21;89.73;100634.44;5114496;28;20069;-68
2023/01/28 08:15:26;;;;;;;45.90;25.48;;;;;;;3.17;89.67;100635.53;5114112;28;20016;-69
2023/01/28 08:17:56;;;;;;;48.67;25.67;;;;;;;3.15;91.10;100641.84;5113953;28;20579;-69
2023/01/28 08:23:44;;;;;;;54.03;27.35;;;;;;;3.32;88.51;100642.66;5114660;28;20544;-69
2023/01/28 08:26:09;;;;;;;54.38;28.33;;;;;;;3.32;87.80;100642.66;5115739;28;20031;-68
2023/01/28 08:28:35;;;;;;;45.88;25.13;;;;;;;3.27;88.62;100652.69;5113980;28;20035;-68
2023/01/28 08:31:01;;;;;;;45.33;25.17;;;;;;;3.25;90.35;100654.53;5113438;28;20026;-68
2023/01/28 08:33:26;;;;;;;44.38;24.35;;;;;;;3.24;90.53;100659.91;5113084;28;20027;-68
2023/01/28 08:35:52;;;;;;;43.45;22.48;;;;;;;3.19;90.36;100644.25;5112760;28;20047;-68
2023/01/28 08:38:19;;;;;;;48.00;23.70;;;;;;;3.20;90.36;100643.34;5112777;28;20026;-69
2023/01/28 08:40:45;;;;;;;42.40;23.75;;;;;;;3.31;90.61;100658.66;5111550;28;20027;-69
2023/01/28 08:43:11;;;;;;;44.88;23.42;;;;;;;3.32;90.29;100660.38;5111729;28;20047;-69
2023/01/28 08:45:38;;;;;;;38.88;22.38;;;;;;;3.40;87.67;100651.09;5112559;27;20096;-69
2023/01/28 08:48:06;;;;;;;39.28;22.27;;;;;;;3.26;87.58;100642.16;5111667;28;20360;-69
2023/01/28 08:50:36;;;;;;;45.50;24.52;;;;;;;3.51;86.09;100672.56;5112546;28;20038;-68
2023/01/28 08:53:14;;;;;;;43.97;23.45;;;;;;;3.44;86.74;100670.31;5112676;28;20027;-68
2023/01/28 08:55:39;;;;;;;39.90;21.40;;;;;;;3.41;87.53;100675.78;5111215;28;20035;-68
2023/01/28 08:58:07;;;;;;;41.15;22.42;;;;;;;3.41;86.88;100673.13;5111038;28;20023;-66
2023/01/28 09:00:33;;;;;;;38.80;20.85;;;;;;;3.53;85.74;100676.00;5110743;28;20023;-67
2023/01/28 09:02:59;;;;;;;35.55;20.52;;;;;;;3.48;86.13;100669.25;5110707;28;20031;-68
2023/01/28 09:05:24;;;;;;;39.55;21.60;;;;;;;3.54;86.74;100683.00;5111468;28;20044;-68
2023/01/28 09:11:11;;;;;;;38.53;20.80;;;;;;;3.49;88.39;100681.56;5110690;28;20042;-68
2023/01/28 09:13:37;;;;;;;38.47;20.30;;;;;;;3.50;88.11;100683.25;5110916;27;20047;-68
2023/01/28 09:16:06;;;;;;;38.85;21.23;;;;;;;3.47;88.15;100678.97;5111650;28;20015;-68
2023/01/28 09:18:31;;;;;;;40.10;21.58;;;;;;;3.52;89.17;100684.03;5110554;28;20043;-68
2023/01/28 09:20:57;;;;;;;35.63;20.98;;;;;;;3.58;89.46;100689.84;5111299;28;20027;-67
2023/01/28 09:23:22;;;;;;;34.75;20.60;;;;;;;3.60;90.03;100679.16;5111104;28;20027;-68
2023/01/28 09:25:48;;;;;;;38.67;21.10;;;;;;;3.57;89.57;100674.91;5111023;28;20032;-68
2023/01/28 09:28:13;;;;;;;40.28;21.58;;;;;;;3.65;88.83;100687.75;5110788;28;20180;-68
2023/01/28 09:30:39;;;;;;;39.97;21.27;;;;;;;3.67;88.21;100673.47;5109923;28;20040;-67
2023/01/28 09:33:05;;;;;;;37.53;21.25;;;;;;;3.82;88.05;100690.34;5109296;28;20110;-69
2023/01/28 09:35:32;;;;;;;40.80;22.65;;;;;;;3.82;88.31;100690.34;5111063;28;20085;-67
2023/01/28 09:37:58;;;;;;;41.45;22.45;;;;;;;3.82;88.08;100691.22;5109609;28;20058;-69
2023/01/28 09:40:39;;;;;;;39.17;22.88;;;;;;;3.83;85.71;100687.59;5110660;28;20024;-69
2023/01/28 09:43:29;;;;;;;39.00;22.80;;;;;;;3.83;85.37;100694.69;5110135;28;20460;-69
2023/01/28 09:46:01;;;;;;;37.63;21.25;;;;;;;3.81;86.54;100688.63;5111275;28;20024;-68
2023/01/28 09:48:34;;;;;;;38.45;21.88;;;;;;;3.79;87.67;100691.38;5109506;28;20039;-69
2023/01/28 09:51:00;;;;;;;42.37;23.43;;;;;;;3.86;85.73;100675.97;5111786;28;20023;-69
2023/01/28 09:53:32;;;;;;;44.47;22.73;;;;;;;3.91;86.52;100689.84;5110917;28;20031;-69
2023/01/28 09:56:04;;;;;;;35.90;21.25;;;;;;;4.14;83.04;100700.91;5110435;28;20375;-67
2023/01/28 09:58:30;;;;;;;40.33;22.02;;;;;;;3.99;84.42;100696.44;5110766;28;20060;-68
2023/01/28 10:01:08;;;;;;;37.55;21.63;;;;;;;3.92;85.40;100696.84;5109935;28;20081;-68
2023/01/28 10:03:52;;;;;;;39.33;21.75;;;;;;;3.92;86.30;100692.41;5109037;28;20047;-63
2023/01/28 10:06:34;;;;;;;38.20;21.95;;;;;;;3.96;86.51;100690.44;5110759;28;20028;-67
2023/01/28 10:12:42;;;;;;;34.85;19.38;;;;;;;4.09;87.23;100683.50;5111032;28;20376;-67
2023/01/28 10:15:26;;;;;;;39.20;21.17;;;;;;;4.09;87.37;100681.72;5110705;28;20023;-68
2023/01/28 10:17:56;;;;;;;42.65;22.55;;;;;;;4.26;84.14;100678.13;5112034;28;20433;-68
2023/01/28 10:20:29;;;;;;;35.83;20.63;;;;;;;4.21;84.75;100685.50;5112004;28;20516;-68
2023/01/28 10:23:11;;;;;;;43.00;22.40;;;;;;;4.17;86.35;100683.94;5111819;28;20107;-68
2023/01/28 10:25:39;;;;;;;41.45;24.27;;;;;;;4.23;84.10;100673.84;5111838;28;20561;-68
2023/01/28 10:28:17;;;;;;;39.25;21.02;;;;;;;4.25;84.36;100682.56;5111768;28;20020;-68
2023/01/28 10:30:45;;;;;;;36.28;21.02;;;;;;;4.18;85.67;100683.00;5114813;28;20093;-68
2023/01/28 10:33:26;;;;;;;37.50;20.80;;;;;;;4.22;85.91;100682.75;5115776;28;20494;-68
2023/01/28 10:35:54;;;;;;;39.20;20.95;;;;;;;4.17;84.73;100663.59;5113209;28;20542;-68
2023/01/28 10:38:22;;;;;;;36.42;21.38;;;;;;;4.29;84.56;100672.66;5115845;28;20024;-68
2023/01/28 10:40:48;;;;;;;41.58;23.15;;;;;;;4.27;85.68;100693.09;5114241;28;20023;-67
2023/01/28 10:43:23;;;;;;;40.78;21.63;;;;;;;4.22;86.69;100685.41;5115667;28;20027;-68
2023/01/28 10:46:05;;;;;;;39.67;21.25;;;;;;;4.17;87.23;100670.69;5115583;28;20031;-68
2023/01/28 10:49:11;;;;;;;34.85;19.42;;;;;;;4.23;87.40;100684.44;5115014;28;20039;-68
2023/01/28 10:51:40;;;;;;;33.47;19.67;;;;;;;4.28;87.12;100686.84;5114278;28;20114;-68
2023/01/28 10:54:34;;;;;;;38.72;20.42;;;;;;;4.30;86.42;100683.19;5114953;28;20023;-68
2023/01/28 10:57:02;;;;;;;35.70;20.48;;;;;;;4.45;85.59;100679.66;5097572;28;20495;-68
2023/01/28 10:59:35;;;;;;;31.92;19.13;;;;;;;4.39;85.93;100679.16;5115329;27;20031;-67
2023/01/28 11:02:26;;;;;;;33.65;18.45;;;;;;;4.38;85.71;100665.00;5115329;28;20098;-68
2023/01/28 11:05:17;;;;;;;33.45;19.20;;;;;;;4.42;87.36;100684.28;5100342;28;20042;-67
2023/01/28 11:07:43;;;;;;;30.67;16.98;;;;;;;4.39;87.17;100669.38;5115047;28;20035;-67
2023/01/28 11:10:39;;;;;;;30.65;17.65;;;;;;;4.53;86.68;100684.53;5115073;28;20471;-68
2023/01/28 11:13:13;;;;;;;36.10;18.65;;;;;;;4.73;84.41;100679.78;5097908;27;20031;-67
2023/01/28 11:16:05;;;;;;;31.60;18.27;;;;;;;4.68;84.87;100679.19;5114790;28;20024;-68
2023/01/28 11:18:49;;;;;;;38.25;19.08;;;;;;;4.72;84.72;100679.88;5114500;28;20452;-68
2023/01/28 11:21:17;;;;;;;;;;;;;;;4.63;86.09;100683.03;5115245;28;20471;-67
2023/01/28 11:23:58;;;;;;;29.35;15.68;;;;;;;4.65;85.77;100679.34;5114637;28;20369;-67
2023/01/28 11:26:27;;;;;;;30.33;17.45;;;;;;;4.72;86.00;100679.88;5114670;28;20523;-67
2023/01/28 11:28:53;;;;;;;26.02;15.63;;;;;;;4.52;86.46;100651.78;5114657;28;20015;-67
2023/01/28 11:31:20;;;;;;;27.75;16.08;;;;;;;4.57;87.34;100673.63;5114729;28;20020;-67
2023/01/28 11:34:01;;;;;;;29.88;16.10;;;;;;;4.57;88.58;100675.44;5114345;28;20019;-67
2023/01/28 11:36:28;;;;;;;28.70;16.15;;;;;;;4.54;88.36;100671.16;5114433;28;20035;-67
2023/01/28 11:38:56;;;;;;;28.33;16.13;;;;;;;4.68;87.68;100676.53;5114289;28;20520;-67
2023/01/28 11:41:30;;;;;;;24.98;15.30;;;;;;;4.60;88.40;100667.28;5112586;28;20142;-68
2023/01/28 11:43:57;;;;;;;27.17;16.15;;;;;;;4.62;88.71;100668.91;5114129;28;20019;-67
2023/01/28 11:46:35;;;;;;;29.73;15.48;;;;;;;4.51;86.68;100650.09;5114457;28;20049;-67
2023/01/28 11:49:10;;;;;;;27.85;16.65;;;;;;;4.67;87.68;100668.63;5114241;28;20035;-67
2023/01/28 11:51:44;;;;;;;26.05;15.15;;;;;;;4.67;87.32;100665.97;5112948;28;20028;-67
2023/01/28 11:54:35;;;;;;;29.27;16.55;;;;;;;4.65;87.21;100671.38;5114235;28;20016;-67
2023/01/28 11:57:23;;;;;;;26.50;15.70;;;;;;;4.60;88.12;100668.16;5114271;28;20399;-68
2023/01/28 12:00:03;;;;;;;28.77;16.60;;;;;;;4.62;89.12;100668.06;5110859;28;20055;-67
2023/01/28 12:02:43;;;;;;;27.42;16.33;;;;;;;4.70;87.65;100664.00;5112170;28;20480;-67
2023/01/28 12:05:14;;;;;;;27.50;15.68;;;;;;;4.71;86.32;100665.72;5111619;28;20043;-67
2023/01/28 12:08:02;;;;;;;26.35;15.80;;;;;;;4.67;87.13;100666.84;5111864;28;20027;-67
2023/01/28 12:10:44;;;;;;;26.90;16.15;;;;;;;4.59;88.14;100665.59;5112073;28;20030;-67
2023/01/28 12:13:27;;;;;;;28.02;15.77;;;;;;;4.80;86.11;100666.13;5111775;28;20102;-67
2023/01/28 12:16:04;;;;;;;31.25;17.65;;;;;;;4.68;88.30;100667.72;5110753;28;20023;-67
2023/01/28 12:18:48;;;;;;;28.90;15.93;;;;;;;4.68;89.10;100671.19;5111706;28;20103;-68
2023/01/28 12:21:25;;;;;;;27.98;15.90;;;;;;;4.64;87.78;100664.38;5112822;28;20035;-67
2023/01/28 12:24:16;;;;;;;27.45;14.82;;;;;;;4.63;87.16;100662.66;5112844;28;20333;-67
2023/01/28 12:27:00;;;;;;;28.60;16.23;;;;;;;4.60;87.62;100662.84;5112473;28;20464;-67
2023/01/28 12:29:37;;;;;;;27.40;15.47;;;;;;;4.70;86.75;100671.97;5111502;28;20345;-67
2023/01/28 12:32:38;;;;;;;29.00;16.92;;;;;;;4.63;86.84;100667.97;5110322;28;20313;-67
2023/01/28 12:35:06;;;;;;;28.95;15.65;;;;;;;4.59;88.45;100662.94;5073045;28;20040;-67